sensor_id;sensor_type;location;lat;lon;timestamp;P1;durP1;ratioP1;P2;durP2;ratioP2
17504;SDS011;8870;50.950;11.762;2023-11-19T00:02:22;0.73;;;0.68;;
17504;SDS011;8870;50.950;11.762;2023-11-19T00:07:53;0.70;;;0.70;;
17504;SDS011;8870;50.950;11.762;2023-11-19T00:13:11;1.25;;;0.65;;
17504;SDS011;8870;50.950;11.762;2023-11-19T00:18:46;0.85;;;0.70;;
17504;SDS011;8870;50.950;11.762;2023-11-19T00:24:05;0.80;;;0.70;;
17504;SDS011;8870;50.950;11.762;2023-11-19T00:29:38;1.55;;;0.63;;
17504;SDS011;8870;50.950;11.762;2023-11-19T00:35:00;0.50;;;0.50;;
17504;SDS011;8870;50.950;11.762;2023-11-19T00:40:31;0.50;;;0.50;;
17504;SDS011;8870;50.950;11.762;2023-11-19T00:45:49;0.35;;;0.35;;
17504;SDS011;8870;50.950;11.762;2023-11-19T00:51:23;0.52;;;0.50;;
17504;SDS011;8870;50.950;11.762;2023-11-19T00:56:42;0.30;;;0.30;;
17504;SDS011;8870;50.950;11.762;2023-11-19T01:02:15;0.30;;;0.30;;
17504;SDS011;8870;50.950;11.762;2023-11-19T01:07:36;0.40;;;0.40;;
17504;SDS011;8870;50.950;11.762;2023-11-19T01:13:10;0.90;;;0.30;;
17504;SDS011;8870;50.950;11.762;2023-11-19T01:18:28;0.30;;;0.30;;
17504;SDS011;8870;50.950;11.762;2023-11-19T01:24:02;0.35;;;0.30;;
17504;SDS011;8870;50.950;11.762;2023-11-19T01:29:24;0.20;;;0.20;;
17504;SDS011;8870;50.950;11.762;2023-11-19T01:34:56;0.20;;;0.20;;
17504;SDS011;8870;50.950;11.762;2023-11-19T01:40:19;0.20;;;0.20;;
17504;SDS011;8870;50.950;11.762;2023-11-19T01:45:51;0.30;;;0.30;;
17504;SDS011;8870;50.950;11.762;2023-11-19T01:51:09;0.20;;;0.20;;
17504;SDS011;8870;50.950;11.762;2023-11-19T01:56:44;0.13;;;0.13;;
17504;SDS011;8870;50.950;11.762;2023-11-19T02:02:03;0.20;;;0.20;;
17504;SDS011;8870;50.950;11.762;2023-11-19T02:07:34;1.55;;;0.20;;
17504;SDS011;8870;50.950;11.762;2023-11-19T02:13:10;0.20;;;0.20;;
17504;SDS011;8870;50.950;11.762;2023-11-19T02:18:28;1.10;;;0.10;;
17504;SDS011;8870;50.950;11.762;2023-11-19T02:24:01;0.60;;;0.20;;
17504;SDS011;8870;50.950;11.762;2023-11-19T02:29:33;0.20;;;0.20;;
17504;SDS011;8870;50.950;11.762;2023-11-19T02:35:04;2.03;;;0.22;;
17504;SDS011;8870;50.950;11.762;2023-11-19T02:40:24;0.20;;;0.20;;
17504;SDS011;8870;50.950;11.762;2023-11-19T02:45:59;0.38;;;0.35;;
17504;SDS011;8870;50.950;11.762;2023-11-19T02:51:22;0.70;;;0.50;;
17504;SDS011;8870;50.950;11.762;2023-11-19T02:56:54;0.20;;;0.20;;
17504;SDS011;8870;50.950;11.762;2023-11-19T03:02:19;0.30;;;0.30;;
17504;SDS011;8870;50.950;11.762;2023-11-19T03:07:55;0.35;;;0.30;;
17504;SDS011;8870;50.950;11.762;2023-11-19T03:13:14;0.10;;;0.10;;
17504;SDS011;8870;50.950;11.762;2023-11-19T03:18:49;0.57;;;0.28;;
17504;SDS011;8870;50.950;11.762;2023-11-19T03:24:08;0.20;;;0.20;;
17504;SDS011;8870;50.950;11.762;2023-11-19T03:29:39;0.32;;;0.20;;
17504;SDS011;8870;50.950;11.762;2023-11-19T03:35:00;2.38;;;0.20;;
17504;SDS011;8870;50.950;11.762;2023-11-19T03:40:33;0.43;;;0.20;;
17504;SDS011;8870;50.950;11.762;2023-11-19T03:46:03;0.63;;;0.20;;
17504;SDS011;8870;50.950;11.762;2023-11-19T03:51:39;0.30;;;0.22;;
17504;SDS011;8870;50.950;11.762;2023-11-19T03:57:09;0.20;;;0.20;;
17504;SDS011;8870;50.950;11.762;2023-11-19T04:02:42;0.20;;;0.20;;
17504;SDS011;8870;50.950;11.762;2023-11-19T04:08:04;0.55;;;0.20;;
17504;SDS011;8870;50.950;11.762;2023-11-19T04:13:35;0.20;;;0.20;;
17504;SDS011;8870;50.950;11.762;2023-11-19T04:18:53;0.20;;;0.20;;
17504;SDS011;8870;50.950;11.762;2023-11-19T04:24:27;1.15;;;0.35;;
17504;SDS011;8870;50.950;11.762;2023-11-19T04:29:45;0.40;;;0.30;;
17504;SDS011;8870;50.950;11.762;2023-11-19T04:35:16;0.57;;;0.38;;
17504;SDS011;8870;50.950;11.762;2023-11-19T04:40:38;0.30;;;0.30;;
17504;SDS011;8870;50.950;11.762;2023-11-19T04:46:09;1.58;;;0.40;;
17504;SDS011;8870;50.950;11.762;2023-11-19T04:51:27;0.30;;;0.30;;
17504;SDS011;8870;50.950;11.762;2023-11-19T04:57:03;0.30;;;0.30;;
17504;SDS011;8870;50.950;11.762;2023-11-19T05:02:21;2.28;;;0.38;;
17504;SDS011;8870;50.950;11.762;2023-11-19T05:07:52;0.25;;;0.22;;
17504;SDS011;8870;50.950;11.762;2023-11-19T05:13:13;0.30;;;0.28;;
17504;SDS011;8870;50.950;11.762;2023-11-19T05:18:44;0.20;;;0.20;;
17504;SDS011;8870;50.950;11.762;2023-11-19T05:24:03;0.30;;;0.30;;
17504;SDS011;8870;50.950;11.762;2023-11-19T05:29:39;0.45;;;0.30;;
17504;SDS011;8870;50.950;11.762;2023-11-19T05:34:58;0.20;;;0.20;;
17504;SDS011;8870;50.950;11.762;2023-11-19T05:40:29;0.30;;;0.30;;
17504;SDS011;8870;50.950;11.762;2023-11-19T05:45:50;0.75;;;0.40;;
17504;SDS011;8870;50.950;11.762;2023-11-19T05:51:27;0.75;;;0.30;;
17504;SDS011;8870;50.950;11.762;2023-11-19T05:56:48;0.32;;;0.28;;
17504;SDS011;8870;50.950;11.762;2023-11-19T06:02:23;0.20;;;0.20;;
17504;SDS011;8870;50.950;11.762;2023-11-19T06:07:41;0.35;;;0.20;;
17504;SDS011;8870;50.950;11.762;2023-11-19T06:13:13;0.65;;;0.20;;
17504;SDS011;8870;50.950;11.762;2023-11-19T06:18:35;0.30;;;0.20;;
17504;SDS011;8870;50.950;11.762;2023-11-19T06:24:06;0.30;;;0.30;;
17504;SDS011;8870;50.950;11.762;2023-11-19T06:29:32;0.50;;;0.30;;
17504;SDS011;8870;50.950;11.762;2023-11-19T06:35:07;0.25;;;0.20;;
17504;SDS011;8870;50.950;11.762;2023-11-19T06:40:25;0.20;;;0.20;;
17504;SDS011;8870;50.950;11.762;2023-11-19T06:45:56;1.17;;;0.30;;
17504;SDS011;8870;50.950;11.762;2023-11-19T06:51:17;2.17;;;0.20;;
17504;SDS011;8870;50.950;11.762;2023-11-19T06:56:48;0.30;;;0.30;;
17504;SDS011;8870;50.950;11.762;2023-11-19T07:02:06;0.57;;;0.13;;
17504;SDS011;8870;50.950;11.762;2023-11-19T07:07:44;0.20;;;0.20;;
17504;SDS011;8870;50.950;11.762;2023-11-19T07:13:02;0.25;;;0.25;;
17504;SDS011;8870;50.950;11.762;2023-11-19T07:18:34;0.30;;;0.30;;
17504;SDS011;8870;50.950;11.762;2023-11-19T07:23:55;0.10;;;0.10;;
17504;SDS011;8870;50.950;11.762;2023-11-19T07:29:26;0.52;;;0.30;;
17504;SDS011;8870;50.950;11.762;2023-11-19T07:34:46;0.30;;;0.30;;
17504;SDS011;8870;50.950;11.762;2023-11-19T07:40:21;1.30;;;0.30;;
17504;SDS011;8870;50.950;11.762;2023-11-19T07:45:40;0.68;;;0.30;;
17504;SDS011;8870;50.950;11.762;2023-11-19T07:51:11;2.03;;;0.45;;
17504;SDS011;8870;50.950;11.762;2023-11-19T07:56:32;2.60;;;0.38;;
17504;SDS011;8870;50.950;11.762;2023-11-19T08:02:05;1.05;;;0.30;;
17504;SDS011;8870;50.950;11.762;2023-11-19T08:07:23;0.90;;;0.50;;
17504;SDS011;8870;50.950;11.762;2023-11-19T08:12:57;0.45;;;0.40;;
17504;SDS011;8870;50.950;11.762;2023-11-19T08:18:15;1.10;;;0.50;;
17504;SDS011;8870;50.950;11.762;2023-11-19T08:23:46;1.20;;;0.47;;
17504;SDS011;8870;50.950;11.762;2023-11-19T08:29:07;1.45;;;0.60;;
17504;SDS011;8870;50.950;11.762;2023-11-19T08:34:38;1.23;;;0.50;;
17504;SDS011;8870;50.950;11.762;2023-11-19T08:39:56;0.90;;;0.40;;
17504;SDS011;8870;50.950;11.762;2023-11-19T08:45:31;2.47;;;0.80;;
17504;SDS011;8870;50.950;11.762;2023-11-19T08:50:49;1.13;;;0.40;;
17504;SDS011;8870;50.950;11.762;2023-11-19T08:56:20;1.15;;;0.45;;
17504;SDS011;8870;50.950;11.762;2023-11-19T09:01:41;0.65;;;0.30;;
17504;SDS011;8870;50.950;11.762;2023-11-19T09:07:12;1.42;;;0.40;;
17504;SDS011;8870;50.950;11.762;2023-11-19T09:12:31;0.50;;;0.30;;
17504;SDS011;8870;50.950;11.762;2023-11-19T09:18:04;0.52;;;0.28;;
17504;SDS011;8870;50.950;11.762;2023-11-19T09:23:22;0.20;;;0.20;;
17504;SDS011;8870;50.950;11.762;2023-11-19T09:28:57;1.92;;;0.35;;
17504;SDS011;8870;50.950;11.762;2023-11-19T09:34:25;1.63;;;0.50;;
17504;SDS011;8870;50.950;11.762;2023-11-19T09:39:57;1.65;;;0.50;;
17504;SDS011;8870;50.950;11.762;2023-11-19T09:45:16;0.80;;;0.28;;
17504;SDS011;8870;50.950;11.762;2023-11-19T09:50:50;2.70;;;0.90;;
17504;SDS011;8870;50.950;11.762;2023-11-19T09:56:11;2.72;;;0.60;;
17504;SDS011;8870;50.950;11.762;2023-11-19T10:01:43;3.08;;;0.63;;
17504;SDS011;8870;50.950;11.762;2023-11-19T10:07:06;3.97;;;1.15;;
17504;SDS011;8870;50.950;11.762;2023-11-19T10:12:41;8.97;;;1.80;;
17504;SDS011;8870;50.950;11.762;2023-11-19T10:18:05;7.70;;;1.70;;
17504;SDS011;8870;50.950;11.762;2023-11-19T10:23:50;7.20;;;1.58;;
17504;SDS011;8870;50.950;11.762;2023-11-19T10:29:08;5.57;;;1.70;;
17504;SDS011;8870;50.950;11.762;2023-11-19T10:34:43;7.97;;;1.83;;
17504;SDS011;8870;50.950;11.762;2023-11-19T10:40:18;7.93;;;1.92;;
17504;SDS011;8870;50.950;11.762;2023-11-19T10:45:36;6.07;;;1.70;;
17504;SDS011;8870;50.950;11.762;2023-11-19T10:51:07;9.00;;;2.00;;
17504;SDS011;8870;50.950;11.762;2023-11-19T10:56:29;11.23;;;2.25;;
17504;SDS011;8870;50.950;11.762;2023-11-19T11:02:03;9.32;;;1.85;;
17504;SDS011;8870;50.950;11.762;2023-11-19T11:07:24;5.72;;;1.60;;
17504;SDS011;8870;50.950;11.762;2023-11-19T11:13:00;6.32;;;1.70;;
17504;SDS011;8870;50.950;11.762;2023-11-19T11:18:21;8.60;;;1.70;;
17504;SDS011;8870;50.950;11.762;2023-11-19T11:23:56;6.53;;;1.50;;
17504;SDS011;8870;50.950;11.762;2023-11-19T11:29:31;5.85;;;1.70;;
17504;SDS011;8870;50.950;11.762;2023-11-19T11:35:13;6.45;;;1.50;;
17504;SDS011;8870;50.950;11.762;2023-11-19T11:40:41;5.38;;;1.58;;
17504;SDS011;8870;50.950;11.762;2023-11-19T11:52:04;6.97;;;1.58;;
17504;SDS011;8870;50.950;11.762;2023-11-19T11:57:37;6.43;;;1.50;;
17504;SDS011;8870;50.950;11.762;2023-11-19T12:02:56;4.78;;;1.70;;
17504;SDS011;8870;50.950;11.762;2023-11-19T12:08:31;7.18;;;1.80;;
17504;SDS011;8870;50.950;11.762;2023-11-19T12:13:56;6.75;;;1.73;;
17504;SDS011;8870;50.950;11.762;2023-11-19T12:19:28;6.30;;;1.48;;
17504;SDS011;8870;50.950;11.762;2023-11-19T12:24:49;6.28;;;1.83;;
17504;SDS011;8870;50.950;11.762;2023-11-19T12:30:21;6.28;;;1.75;;
17504;SDS011;8870;50.950;11.762;2023-11-19T12:35:41;6.60;;;1.77;;
17504;SDS011;8870;50.950;11.762;2023-11-19T12:41:16;6.18;;;1.63;;
17504;SDS011;8870;50.950;11.762;2023-11-19T12:46:40;7.63;;;1.77;;
17504;SDS011;8870;50.950;11.762;2023-11-19T12:52:13;7.70;;;1.70;;
17504;SDS011;8870;50.950;11.762;2023-11-19T12:57:41;7.28;;;2.03;;
17504;SDS011;8870;50.950;11.762;2023-11-19T13:03:12;10.13;;;1.92;;
17504;SDS011;8870;50.950;11.762;2023-11-19T13:08:50;6.38;;;1.70;;
17504;SDS011;8870;50.950;11.762;2023-11-19T13:14:35;9.55;;;2.03;;
17504;SDS011;8870;50.950;11.762;2023-11-19T13:19:57;9.10;;;1.90;;
17504;SDS011;8870;50.950;11.762;2023-11-19T13:25:30;6.25;;;1.73;;
17504;SDS011;8870;50.950;11.762;2023-11-19T13:30:51;4.63;;;1.42;;
17504;SDS011;8870;50.950;11.762;2023-11-19T13:36:22;6.88;;;1.75;;
17504;SDS011;8870;50.950;11.762;2023-11-19T13:41:41;5.43;;;1.70;;
17504;SDS011;8870;50.950;11.762;2023-11-19T13:47:30;6.07;;;1.77;;
17504;SDS011;8870;50.950;11.762;2023-11-19T13:52:49;7.53;;;1.98;;
17504;SDS011;8870;50.950;11.762;2023-11-19T13:58:20;5.97;;;1.80;;
17504;SDS011;8870;50.950;11.762;2023-11-19T14:03:41;6.97;;;1.70;;
17504;SDS011;8870;50.950;11.762;2023-11-19T14:09:12;10.05;;;1.98;;
17504;SDS011;8870;50.950;11.762;2023-11-19T14:14:31;5.18;;;1.50;;
17504;SDS011;8870;50.950;11.762;2023-11-19T14:20:07;6.30;;;1.90;;
17504;SDS011;8870;50.950;11.762;2023-11-19T14:25:28;7.10;;;1.83;;
17504;SDS011;8870;50.950;11.762;2023-11-19T14:30:58;8.93;;;2.30;;
17504;SDS011;8870;50.950;11.762;2023-11-19T14:36:26;8.63;;;1.95;;
17504;SDS011;8870;50.950;11.762;2023-11-19T14:41:57;7.20;;;1.70;;
17504;SDS011;8870;50.950;11.762;2023-11-19T14:47:19;5.57;;;1.80;;
17504;SDS011;8870;50.950;11.762;2023-11-19T14:52:53;7.60;;;1.92;;
17504;SDS011;8870;50.950;11.762;2023-11-19T14:58:12;8.70;;;2.00;;
17504;SDS011;8870;50.950;11.762;2023-11-19T15:03:44;8.80;;;2.10;;
17504;SDS011;8870;50.950;11.762;2023-11-19T15:09:07;8.30;;;2.45;;
17504;SDS011;8870;50.950;11.762;2023-11-19T15:14:39;7.30;;;2.10;;
17504;SDS011;8870;50.950;11.762;2023-11-19T15:19:58;10.45;;;2.17;;
17504;SDS011;8870;50.950;11.762;2023-11-19T15:25:32;9.23;;;2.08;;
17504;SDS011;8870;50.950;11.762;2023-11-19T15:30:51;9.07;;;2.00;;
17504;SDS011;8870;50.950;11.762;2023-11-19T15:36:21;10.63;;;2.33;;
17504;SDS011;8870;50.950;11.762;2023-11-19T15:41:42;7.55;;;1.95;;
17504;SDS011;8870;50.950;11.762;2023-11-19T15:47:14;7.90;;;2.03;;
17504;SDS011;8870;50.950;11.762;2023-11-19T15:52:32;8.93;;;1.98;;
17504;SDS011;8870;50.950;11.762;2023-11-19T15:58:08;7.05;;;2.05;;
17504;SDS011;8870;50.950;11.762;2023-11-19T16:03:27;6.72;;;1.80;;
17504;SDS011;8870;50.950;11.762;2023-11-19T16:09:01;8.90;;;2.10;;
17504;SDS011;8870;50.950;11.762;2023-11-19T16:14:22;8.75;;;2.00;;
17504;SDS011;8870;50.950;11.762;2023-11-19T16:19:53;7.55;;;2.00;;
17504;SDS011;8870;50.950;11.762;2023-11-19T16:25:12;8.80;;;1.95;;
17504;SDS011;8870;50.950;11.762;2023-11-19T16:30:45;7.45;;;2.10;;
17504;SDS011;8870;50.950;11.762;2023-11-19T16:36:04;9.27;;;2.10;;
17504;SDS011;8870;50.950;11.762;2023-11-19T16:41:37;8.90;;;2.20;;
17504;SDS011;8870;50.950;11.762;2023-11-19T16:46:57;7.78;;;2.22;;
17504;SDS011;8870;50.950;11.762;2023-11-19T16:52:30;7.30;;;1.80;;
17504;SDS011;8870;50.950;11.762;2023-11-19T16:57:50;7.68;;;2.05;;
17504;SDS011;8870;50.950;11.762;2023-11-19T17:03:23;5.88;;;1.67;;
17504;SDS011;8870;50.950;11.762;2023-11-19T17:08:42;4.20;;;1.45;;
17504;SDS011;8870;50.950;11.762;2023-11-19T17:14:13;5.72;;;1.77;;
17504;SDS011;8870;50.950;11.762;2023-11-19T17:19:37;6.57;;;1.80;;
17504;SDS011;8870;50.950;11.762;2023-11-19T17:25:09;7.05;;;1.88;;
17504;SDS011;8870;50.950;11.762;2023-11-19T17:30:29;6.65;;;1.83;;
17504;SDS011;8870;50.950;11.762;2023-11-19T17:36:04;5.78;;;1.52;;
17504;SDS011;8870;50.950;11.762;2023-11-19T17:41:36;5.65;;;1.50;;
17504;SDS011;8870;50.950;11.762;2023-11-19T17:47:07;5.23;;;1.67;;
17504;SDS011;8870;50.950;11.762;2023-11-19T17:52:27;5.10;;;1.40;;
17504;SDS011;8870;50.950;11.762;2023-11-19T17:57:58;5.85;;;1.60;;
17504;SDS011;8870;50.950;11.762;2023-11-19T18:03:17;7.00;;;1.65;;
17504;SDS011;8870;50.950;11.762;2023-11-19T18:08:51;6.22;;;1.83;;
17504;SDS011;8870;50.950;11.762;2023-11-19T18:14:10;6.88;;;1.83;;
17504;SDS011;8870;50.950;11.762;2023-11-19T18:19:41;6.45;;;1.70;;
17504;SDS011;8870;50.950;11.762;2023-11-19T18:25:01;6.03;;;1.42;;
17504;SDS011;8870;50.950;11.762;2023-11-19T18:30:35;7.00;;;1.80;;
17504;SDS011;8870;50.950;11.762;2023-11-19T18:35:53;5.50;;;1.50;;
17504;SDS011;8870;50.950;11.762;2023-11-19T18:41:26;4.72;;;1.50;;
17504;SDS011;8870;50.950;11.762;2023-11-19T18:46:45;4.63;;;1.33;;
17504;SDS011;8870;50.950;11.762;2023-11-19T18:52:18;4.68;;;1.25;;
17504;SDS011;8870;50.950;11.762;2023-11-19T18:57:38;8.07;;;1.60;;
17504;SDS011;8870;50.950;11.762;2023-11-19T19:03:10;4.85;;;1.35;;
17504;SDS011;8870;50.950;11.762;2023-11-19T19:08:31;3.92;;;1.40;;
17504;SDS011;8870;50.950;11.762;2023-11-19T19:14:07;4.07;;;1.83;;
17504;SDS011;8870;50.950;11.762;2023-11-19T19:19:26;5.22;;;1.80;;
17504;SDS011;8870;50.950;11.762;2023-11-19T19:24:57;3.33;;;1.20;;
17504;SDS011;8870;50.950;11.762;2023-11-19T19:30:18;5.60;;;1.40;;
17504;SDS011;8870;50.950;11.762;2023-11-19T19:35:49;4.55;;;1.20;;
17504;SDS011;8870;50.950;11.762;2023-11-19T19:41:07;3.92;;;1.25;;
17504;SDS011;8870;50.950;11.762;2023-11-19T19:46:40;3.30;;;1.40;;
17504;SDS011;8870;50.950;11.762;2023-11-19T19:51:59;5.60;;;1.20;;
17504;SDS011;8870;50.950;11.762;2023-11-19T19:57:32;3.70;;;1.10;;
17504;SDS011;8870;50.950;11.762;2023-11-19T20:02:53;6.10;;;1.45;;
17504;SDS011;8870;50.950;11.762;2023-11-19T20:08:26;4.63;;;1.50;;
17504;SDS011;8870;50.950;11.762;2023-11-19T20:13:44;6.05;;;1.30;;
17504;SDS011;8870;50.950;11.762;2023-11-19T20:19:19;5.47;;;1.35;;
17504;SDS011;8870;50.950;11.762;2023-11-19T20:24:38;4.88;;;1.38;;
17504;SDS011;8870;50.950;11.762;2023-11-19T20:30:09;5.40;;;1.58;;
17504;SDS011;8870;50.950;11.762;2023-11-19T20:35:30;5.72;;;1.65;;
17504;SDS011;8870;50.950;11.762;2023-11-19T20:41:02;5.00;;;1.30;;
17504;SDS011;8870;50.950;11.762;2023-11-19T20:46:21;6.90;;;1.83;;
17504;SDS011;8870;50.950;11.762;2023-11-19T20:51:56;5.20;;;1.40;;
17504;SDS011;8870;50.950;11.762;2023-11-19T20:57:15;7.60;;;1.63;;
17504;SDS011;8870;50.950;11.762;2023-11-19T21:02:46;5.40;;;1.42;;
17504;SDS011;8870;50.950;11.762;2023-11-19T21:08:07;7.20;;;1.77;;
17504;SDS011;8870;50.950;11.762;2023-11-19T21:13:38;4.45;;;1.38;;
17504;SDS011;8870;50.950;11.762;2023-11-19T21:18:56;4.63;;;1.48;;
17504;SDS011;8870;50.950;11.762;2023-11-19T21:24:29;6.18;;;1.40;;
17504;SDS011;8870;50.950;11.762;2023-11-19T21:29:48;5.13;;;1.45;;
17504;SDS011;8870;50.950;11.762;2023-11-19T21:35:20;4.95;;;1.50;;
17504;SDS011;8870;50.950;11.762;2023-11-19T21:40:40;9.13;;;1.95;;
17504;SDS011;8870;50.950;11.762;2023-11-19T21:46:13;8.60;;;1.90;;
17504;SDS011;8870;50.950;11.762;2023-11-19T21:51:32;9.27;;;1.90;;
17504;SDS011;8870;50.950;11.762;2023-11-19T21:57:11;7.68;;;1.77;;
17504;SDS011;8870;50.950;11.762;2023-11-19T22:02:30;7.40;;;1.80;;
17504;SDS011;8870;50.950;11.762;2023-11-19T22:08:02;9.50;;;1.95;;
17504;SDS011;8870;50.950;11.762;2023-11-19T22:13:25;7.35;;;1.80;;
17504;SDS011;8870;50.950;11.762;2023-11-19T22:18:59;8.98;;;2.08;;
17504;SDS011;8870;50.950;11.762;2023-11-19T22:24:17;10.40;;;2.20;;
17504;SDS011;8870;50.950;11.762;2023-11-19T22:29:50;8.57;;;1.70;;
17504;SDS011;8870;50.950;11.762;2023-11-19T22:35:09;9.70;;;1.90;;
17504;SDS011;8870;50.950;11.762;2023-11-19T22:40:41;12.00;;;2.15;;
17504;SDS011;8870;50.950;11.762;2023-11-19T22:46:02;8.90;;;1.98;;
17504;SDS011;8870;50.950;11.762;2023-11-19T22:51:35;10.05;;;2.17;;
17504;SDS011;8870;50.950;11.762;2023-11-19T22:56:53;7.35;;;1.90;;
17504;SDS011;8870;50.950;11.762;2023-11-19T23:02:27;8.23;;;1.90;;
17504;SDS011;8870;50.950;11.762;2023-11-19T23:07:46;11.15;;;2.10;;
17504;SDS011;8870;50.950;11.762;2023-11-19T23:13:21;10.52;;;2.00;;
17504;SDS011;8870;50.950;11.762;2023-11-19T23:18:41;8.48;;;2.33;;
17504;SDS011;8870;50.950;11.762;2023-11-19T23:24:13;10.57;;;1.92;;
17504;SDS011;8870;50.950;11.762;2023-11-19T23:29:31;8.68;;;1.85;;
17504;SDS011;8870;50.950;11.762;2023-11-19T23:35:05;9.63;;;2.05;;
17504;SDS011;8870;50.950;11.762;2023-11-19T23:40:24;12.20;;;1.77;;
17504;SDS011;8870;50.950;11.762;2023-11-19T23:45:55;7.45;;;1.85;;
17504;SDS011;8870;50.950;11.762;2023-11-19T23:51:15;8.93;;;1.73;;
17504;SDS011;8870;50.950;11.762;2023-11-19T23:56:47;10.27;;;1.90;;
